KIFP

Laughlin/Bullhead International Airport

Airport
ICAO code
KIFP
IATA Code
IFP
Summary
ICAO Region
NAM
ICAO Territory
Location

Bullhead City, Arizona

Serving
Bullhead City
Elevation
707 ft
Coordinates
35° 9' 56" N , 114° 33' 25" W
KCC
Metar
KIFP 181547Z 21004KT 10SM CLR 37/13 A2988

International airport serving Bullhead City, Arizona and Laughlin, Nevada.

 

Airport map

Aerial View

SKYbrary Partners:

Safety knowledge contributed by: